sensor_id;sensor_type;location;lat;lon;timestamp;temperature;humidity
54898;DHT22;40800;52.704;6.398;2023-05-10T00:01:33;13.90;99.90
54898;DHT22;40800;52.704;6.398;2023-05-10T00:03:59;13.50;99.90
54898;DHT22;40800;52.704;6.398;2023-05-10T00:06:25;13.50;99.90
54898;DHT22;40800;52.704;6.398;2023-05-10T00:08:50;14.20;99.90
54898;DHT22;40800;52.704;6.398;2023-05-10T00:11:16;13.90;99.90
54898;DHT22;40800;52.704;6.398;2023-05-10T00:13:41;13.80;99.90
54898;DHT22;40800;52.704;6.398;2023-05-10T00:16:07;14.70;99.90
54898;DHT22;40800;52.704;6.398;2023-05-10T00:18:32;14.70;99.90
54898;DHT22;40800;52.704;6.398;2023-05-10T00:20:58;14.60;99.90
54898;DHT22;40800;52.704;6.398;2023-05-10T00:23:23;14.80;99.90
54898;DHT22;40800;52.704;6.398;2023-05-10T00:25:49;13.70;99.90
54898;DHT22;40800;52.704;6.398;2023-05-10T00:28:14;13.80;99.90
54898;DHT22;40800;52.704;6.398;2023-05-10T00:30:40;14.10;99.90
54898;DHT22;40800;52.704;6.398;2023-05-10T00:33:05;14.80;99.90
54898;DHT22;40800;52.704;6.398;2023-05-10T00:35:31;14.20;99.90
54898;DHT22;40800;52.704;6.398;2023-05-10T00:37:57;13.80;99.90
54898;DHT22;40800;52.704;6.398;2023-05-10T00:40:22;13.50;99.90
54898;DHT22;40800;52.704;6.398;2023-05-10T00:42:48;13.80;99.90
54898;DHT22;40800;52.704;6.398;2023-05-10T00:45:14;14.90;99.90
54898;DHT22;40800;52.704;6.398;2023-05-10T00:47:39;14.00;99.90
54898;DHT22;40800;52.704;6.398;2023-05-10T00:50:06;14.50;99.90
54898;DHT22;40800;52.704;6.398;2023-05-10T00:52:31;14.90;99.90
54898;DHT22;40800;52.704;6.398;2023-05-10T00:54:57;13.50;99.90
54898;DHT22;40800;52.704;6.398;2023-05-10T00:57:24;14.70;99.90
54898;DHT22;40800;52.704;6.398;2023-05-10T00:59:50;13.70;99.90
54898;DHT22;40800;52.704;6.398;2023-05-10T01:02:16;14.20;99.90
54898;DHT22;40800;52.704;6.398;2023-05-10T01:04:43;13.90;99.90
54898;DHT22;40800;52.704;6.398;2023-05-10T01:07:08;14.20;99.90
54898;DHT22;40800;52.704;6.398;2023-05-10T01:09:34;13.60;99.90
54898;DHT22;40800;52.704;6.398;2023-05-10T01:12:00;13.90;99.90
54898;DHT22;40800;52.704;6.398;2023-05-10T01:14:27;14.70;99.90
54898;DHT22;40800;52.704;6.398;2023-05-10T01:16:54;14.90;99.90
54898;DHT22;40800;52.704;6.398;2023-05-10T01:19:24;13.60;99.90
54898;DHT22;40800;52.704;6.398;2023-05-10T01:33:51;14.40;99.90
54898;DHT22;40800;52.704;6.398;2023-05-10T01:37:00;14.70;99.90
54898;DHT22;40800;52.704;6.398;2023-05-10T01:39:45;13.40;99.90
54898;DHT22;40800;52.704;6.398;2023-05-10T01:42:20;14.60;99.90
54898;DHT22;40800;52.704;6.398;2023-05-10T01:47:31;13.50;99.90
54898;DHT22;40800;52.704;6.398;2023-05-10T01:50:01;13.40;99.90
54898;DHT22;40800;52.704;6.398;2023-05-10T01:52:32;14.70;99.90
54898;DHT22;40800;52.704;6.398;2023-05-10T01:55:18;13.70;99.90
54898;DHT22;40800;52.704;6.398;2023-05-10T01:57:44;14.30;99.90
54898;DHT22;40800;52.704;6.398;2023-05-10T02:00:12;14.70;99.90
54898;DHT22;40800;52.704;6.398;2023-05-10T02:02:40;13.30;99.90
54898;DHT22;40800;52.704;6.398;2023-05-10T02:05:08;14.40;99.90
54898;DHT22;40800;52.704;6.398;2023-05-10T02:07:36;13.30;99.90
54898;DHT22;40800;52.704;6.398;2023-05-10T02:10:06;13.70;99.90
54898;DHT22;40800;52.704;6.398;2023-05-10T02:12:36;13.20;99.90
54898;DHT22;40800;52.704;6.398;2023-05-10T02:15:05;13.90;99.90
54898;DHT22;40800;52.704;6.398;2023-05-10T02:17:32;14.40;99.90
54898;DHT22;40800;52.704;6.398;2023-05-10T02:19:58;13.20;99.90
54898;DHT22;40800;52.704;6.398;2023-05-10T02:22:27;14.30;99.90
54898;DHT22;40800;52.704;6.398;2023-05-10T02:24:54;14.30;99.90
54898;DHT22;40800;52.704;6.398;2023-05-10T02:27:20;14.50;99.90
54898;DHT22;40800;52.704;6.398;2023-05-10T02:29:47;13.10;99.90
54898;DHT22;40800;52.704;6.398;2023-05-10T02:32:14;13.10;99.90
54898;DHT22;40800;52.704;6.398;2023-05-10T02:34:40;14.40;99.90
54898;DHT22;40800;52.704;6.398;2023-05-10T02:37:06;13.60;99.90
54898;DHT22;40800;52.704;6.398;2023-05-10T02:39:33;13.40;99.90
54898;DHT22;40800;52.704;6.398;2023-05-10T02:41:59;14.40;99.90
54898;DHT22;40800;52.704;6.398;2023-05-10T02:44:27;14.50;99.90
54898;DHT22;40800;52.704;6.398;2023-05-10T02:46:56;13.10;99.90
54898;DHT22;40800;52.704;6.398;2023-05-10T02:49:22;13.80;99.90
54898;DHT22;40800;52.704;6.398;2023-05-10T02:51:51;13.20;99.90
54898;DHT22;40800;52.704;6.398;2023-05-10T02:54:20;13.30;99.90
54898;DHT22;40800;52.704;6.398;2023-05-10T02:56:53;13.20;99.90
54898;DHT22;40800;52.704;6.398;2023-05-10T02:59:21;14.40;99.90
54898;DHT22;40800;52.704;6.398;2023-05-10T03:01:47;14.40;99.90
54898;DHT22;40800;52.704;6.398;2023-05-10T03:04:12;13.30;99.90
54898;DHT22;40800;52.704;6.398;2023-05-10T03:06:39;13.10;99.90
54898;DHT22;40800;52.704;6.398;2023-05-10T03:09:04;14.40;99.90
54898;DHT22;40800;52.704;6.398;2023-05-10T03:14:34;13.20;99.90
54898;DHT22;40800;52.704;6.398;2023-05-10T03:17:26;14.50;99.90
54898;DHT22;40800;52.704;6.398;2023-05-10T03:20:01;14.40;99.90
54898;DHT22;40800;52.704;6.398;2023-05-10T03:22:36;14.10;99.90
54898;DHT22;40800;52.704;6.398;2023-05-10T03:25:05;13.00;99.90
54898;DHT22;40800;52.704;6.398;2023-05-10T03:27:32;14.20;99.90
54898;DHT22;40800;52.704;6.398;2023-05-10T03:29:59;13.10;99.90
54898;DHT22;40800;52.704;6.398;2023-05-10T03:32:25;13.30;99.90
54898;DHT22;40800;52.704;6.398;2023-05-10T03:34:52;14.50;99.90
54898;DHT22;40800;52.704;6.398;2023-05-10T03:37:17;13.50;99.90
54898;DHT22;40800;52.704;6.398;2023-05-10T03:39:43;13.10;99.90
54898;DHT22;40800;52.704;6.398;2023-05-10T03:42:08;14.30;99.90
54898;DHT22;40800;52.704;6.398;2023-05-10T03:44:38;14.40;99.90
54898;DHT22;40800;52.704;6.398;2023-05-10T03:47:03;13.00;99.90
54898;DHT22;40800;52.704;6.398;2023-05-10T03:49:29;14.20;99.90
54898;DHT22;40800;52.704;6.398;2023-05-10T03:51:54;14.50;99.90
54898;DHT22;40800;52.704;6.398;2023-05-10T03:54:20;13.80;99.90
54898;DHT22;40800;52.704;6.398;2023-05-10T03:56:45;13.20;99.90
54898;DHT22;40800;52.704;6.398;2023-05-10T03:59:13;13.10;99.90
54898;DHT22;40800;52.704;6.398;2023-05-10T04:01:39;14.50;99.90
54898;DHT22;40800;52.704;6.398;2023-05-10T04:04:04;14.40;99.90
54898;DHT22;40800;52.704;6.398;2023-05-10T04:06:30;13.00;99.90
54898;DHT22;40800;52.704;6.398;2023-05-10T04:08:56;13.00;99.90
54898;DHT22;40800;52.704;6.398;2023-05-10T04:11:24;14.20;99.90
54898;DHT22;40800;52.704;6.398;2023-05-10T04:13:50;13.90;99.90
54898;DHT22;40800;52.704;6.398;2023-05-10T04:16:15;13.90;99.90
54898;DHT22;40800;52.704;6.398;2023-05-10T04:18:41;14.30;99.90
54898;DHT22;40800;52.704;6.398;2023-05-10T04:21:13;13.40;99.90
54898;DHT22;40800;52.704;6.398;2023-05-10T04:23:39;14.10;99.90
54898;DHT22;40800;52.704;6.398;2023-05-10T04:26:04;14.20;99.90
54898;DHT22;40800;52.704;6.398;2023-05-10T04:28:30;14.20;99.90
54898;DHT22;40800;52.704;6.398;2023-05-10T04:31:07;12.90;99.90
54898;DHT22;40800;52.704;6.398;2023-05-10T04:33:33;14.00;99.90
54898;DHT22;40800;52.704;6.398;2023-05-10T04:35:59;13.80;99.90
54898;DHT22;40800;52.704;6.398;2023-05-10T04:38:26;14.40;99.90
54898;DHT22;40800;52.704;6.398;2023-05-10T04:40:52;13.00;99.90
54898;DHT22;40800;52.704;6.398;2023-05-10T04:43:18;14.10;99.90
54898;DHT22;40800;52.704;6.398;2023-05-10T04:45:43;13.10;99.90
54898;DHT22;40800;52.704;6.398;2023-05-10T04:48:09;13.40;99.90
54898;DHT22;40800;52.704;6.398;2023-05-10T04:50:35;13.70;99.90
54898;DHT22;40800;52.704;6.398;2023-05-10T04:53:00;13.20;99.90
54898;DHT22;40800;52.704;6.398;2023-05-10T04:55:26;12.90;99.90
54898;DHT22;40800;52.704;6.398;2023-05-10T04:57:52;13.00;99.90
54898;DHT22;40800;52.704;6.398;2023-05-10T05:00:18;12.90;99.90
54898;DHT22;40800;52.704;6.398;2023-05-10T05:02:45;14.20;99.90
54898;DHT22;40800;52.704;6.398;2023-05-10T05:05:11;13.40;99.90
54898;DHT22;40800;52.704;6.398;2023-05-10T05:07:37;13.90;99.90
54898;DHT22;40800;52.704;6.398;2023-05-10T05:10:07;14.00;99.90
54898;DHT22;40800;52.704;6.398;2023-05-10T05:12:33;12.90;99.90
54898;DHT22;40800;52.704;6.398;2023-05-10T05:14:59;13.80;99.90
54898;DHT22;40800;52.704;6.398;2023-05-10T05:17:25;14.10;99.90
54898;DHT22;40800;52.704;6.398;2023-05-10T05:19:51;14.30;99.90
54898;DHT22;40800;52.704;6.398;2023-05-10T05:22:16;13.20;99.90
54898;DHT22;40800;52.704;6.398;2023-05-10T05:24:42;13.80;99.90
54898;DHT22;40800;52.704;6.398;2023-05-10T05:27:07;13.20;99.90
54898;DHT22;40800;52.704;6.398;2023-05-10T05:29:33;13.10;99.90
54898;DHT22;40800;52.704;6.398;2023-05-10T05:31:59;13.00;99.90
54898;DHT22;40800;52.704;6.398;2023-05-10T05:34:24;13.70;99.90
54898;DHT22;40800;52.704;6.398;2023-05-10T05:36:50;13.00;99.90
54898;DHT22;40800;52.704;6.398;2023-05-10T05:39:16;13.80;99.90
54898;DHT22;40800;52.704;6.398;2023-05-10T05:41:42;14.50;99.90
54898;DHT22;40800;52.704;6.398;2023-05-10T05:44:07;13.40;99.90
54898;DHT22;40800;52.704;6.398;2023-05-10T05:46:33;13.90;99.90
54898;DHT22;40800;52.704;6.398;2023-05-10T05:48:59;13.50;99.90
54898;DHT22;40800;52.704;6.398;2023-05-10T05:51:24;14.30;99.90
54898;DHT22;40800;52.704;6.398;2023-05-10T05:53:50;14.00;99.90
54898;DHT22;40800;52.704;6.398;2023-05-10T05:56:16;14.50;99.90
54898;DHT22;40800;52.704;6.398;2023-05-10T05:58:42;14.00;99.90
54898;DHT22;40800;52.704;6.398;2023-05-10T06:01:08;13.20;99.90
54898;DHT22;40800;52.704;6.398;2023-05-10T06:03:34;13.10;99.90
54898;DHT22;40800;52.704;6.398;2023-05-10T06:06:00;13.70;99.90
54898;DHT22;40800;52.704;6.398;2023-05-10T06:08:25;14.50;99.90
54898;DHT22;40800;52.704;6.398;2023-05-10T06:10:51;13.40;99.90
54898;DHT22;40800;52.704;6.398;2023-05-10T06:13:16;13.70;99.90
54898;DHT22;40800;52.704;6.398;2023-05-10T06:15:42;13.80;99.90
54898;DHT22;40800;52.704;6.398;2023-05-10T06:18:07;13.30;99.90
54898;DHT22;40800;52.704;6.398;2023-05-10T06:20:33;14.40;99.90
54898;DHT22;40800;52.704;6.398;2023-05-10T06:22:59;14.50;99.90
54898;DHT22;40800;52.704;6.398;2023-05-10T06:25:24;13.80;99.90
54898;DHT22;40800;52.704;6.398;2023-05-10T06:27:50;14.50;99.90
54898;DHT22;40800;52.704;6.398;2023-05-10T06:30:16;13.40;99.90
54898;DHT22;40800;52.704;6.398;2023-05-10T06:32:41;14.60;99.90
54898;DHT22;40800;52.704;6.398;2023-05-10T06:35:09;14.10;99.90
54898;DHT22;40800;52.704;6.398;2023-05-10T06:37:34;14.00;99.90
54898;DHT22;40800;52.704;6.398;2023-05-10T06:40:00;13.60;99.90
54898;DHT22;40800;52.704;6.398;2023-05-10T06:42:26;14.00;99.90
54898;DHT22;40800;52.704;6.398;2023-05-10T06:44:52;13.40;99.90
54898;DHT22;40800;52.704;6.398;2023-05-10T06:47:18;14.80;99.90
54898;DHT22;40800;52.704;6.398;2023-05-10T06:49:43;13.60;99.90
54898;DHT22;40800;52.704;6.398;2023-05-10T06:52:09;15.10;99.90
54898;DHT22;40800;52.704;6.398;2023-05-10T06:54:35;13.90;99.90
54898;DHT22;40800;52.704;6.398;2023-05-10T06:57:00;15.10;99.90
54898;DHT22;40800;52.704;6.398;2023-05-10T06:59:28;15.00;99.90
54898;DHT22;40800;52.704;6.398;2023-05-10T07:01:53;13.90;99.90
54898;DHT22;40800;52.704;6.398;2023-05-10T07:04:19;13.60;99.90
54898;DHT22;40800;52.704;6.398;2023-05-10T07:06:44;13.60;99.90
54898;DHT22;40800;52.704;6.398;2023-05-10T07:09:11;14.80;99.90
54898;DHT22;40800;52.704;6.398;2023-05-10T07:11:37;13.90;99.90
54898;DHT22;40800;52.704;6.398;2023-05-10T07:14:02;14.00;99.90
54898;DHT22;40800;52.704;6.398;2023-05-10T07:16:28;14.20;99.90
54898;DHT22;40800;52.704;6.398;2023-05-10T07:18:54;14.20;99.90
54898;DHT22;40800;52.704;6.398;2023-05-10T07:21:19;15.00;99.90
54898;DHT22;40800;52.704;6.398;2023-05-10T07:23:45;13.90;99.90
54898;DHT22;40800;52.704;6.398;2023-05-10T07:26:10;13.80;99.90
54898;DHT22;40800;52.704;6.398;2023-05-10T07:28:36;14.30;99.90
54898;DHT22;40800;52.704;6.398;2023-05-10T07:31:03;15.00;99.90
54898;DHT22;40800;52.704;6.398;2023-05-10T07:33:28;14.90;99.90
54898;DHT22;40800;52.704;6.398;2023-05-10T07:35:54;13.80;99.90
54898;DHT22;40800;52.704;6.398;2023-05-10T07:38:19;14.90;99.90
54898;DHT22;40800;52.704;6.398;2023-05-10T07:40:45;13.90;99.90
54898;DHT22;40800;52.704;6.398;2023-05-10T07:43:10;14.20;99.90
54898;DHT22;40800;52.704;6.398;2023-05-10T07:45:36;14.00;99.90
54898;DHT22;40800;52.704;6.398;2023-05-10T07:48:01;14.90;99.90
54898;DHT22;40800;52.704;6.398;2023-05-10T07:50:27;15.00;99.90
54898;DHT22;40800;52.704;6.398;2023-05-10T07:52:53;14.80;99.90
54898;DHT22;40800;52.704;6.398;2023-05-10T07:55:19;15.00;99.90
54898;DHT22;40800;52.704;6.398;2023-05-10T07:57:45;15.00;99.90
54898;DHT22;40800;52.704;6.398;2023-05-10T08:00:12;14.80;99.90
54898;DHT22;40800;52.704;6.398;2023-05-10T08:02:38;15.00;99.90
54898;DHT22;40800;52.704;6.398;2023-05-10T08:05:05;14.20;99.90
54898;DHT22;40800;52.704;6.398;2023-05-10T08:07:31;15.10;99.90
54898;DHT22;40800;52.704;6.398;2023-05-10T08:09:56;15.30;99.90
54898;DHT22;40800;52.704;6.398;2023-05-10T08:12:22;15.30;99.90
54898;DHT22;40800;52.704;6.398;2023-05-10T08:14:47;15.30;99.90
54898;DHT22;40800;52.704;6.398;2023-05-10T08:17:13;15.20;99.90
54898;DHT22;40800;52.704;6.398;2023-05-10T08:19:38;15.50;99.90
54898;DHT22;40800;52.704;6.398;2023-05-10T08:22:04;15.60;99.90
54898;DHT22;40800;52.704;6.398;2023-05-10T08:24:29;15.20;99.90
54898;DHT22;40800;52.704;6.398;2023-05-10T08:26:55;15.60;99.90
54898;DHT22;40800;52.704;6.398;2023-05-10T08:29:21;15.00;99.90
54898;DHT22;40800;52.704;6.398;2023-05-10T08:31:46;15.30;99.90
54898;DHT22;40800;52.704;6.398;2023-05-10T08:34:12;15.00;99.90
54898;DHT22;40800;52.704;6.398;2023-05-10T08:36:37;15.30;99.90
54898;DHT22;40800;52.704;6.398;2023-05-10T08:39:03;15.00;99.90
54898;DHT22;40800;52.704;6.398;2023-05-10T08:41:29;15.40;99.90
54898;DHT22;40800;52.704;6.398;2023-05-10T08:43:56;15.20;99.90
54898;DHT22;40800;52.704;6.398;2023-05-10T08:46:23;15.10;99.90
54898;DHT22;40800;52.704;6.398;2023-05-10T08:48:50;15.00;99.90
54898;DHT22;40800;52.704;6.398;2023-05-10T08:51:22;15.40;99.90
54898;DHT22;40800;52.704;6.398;2023-05-10T08:53:49;15.30;99.90
54898;DHT22;40800;52.704;6.398;2023-05-10T08:56:15;15.20;99.90
54898;DHT22;40800;52.704;6.398;2023-05-10T08:58:41;15.10;99.90
54898;DHT22;40800;52.704;6.398;2023-05-10T09:01:08;15.10;99.90
54898;DHT22;40800;52.704;6.398;2023-05-10T09:03:35;15.30;99.90
54898;DHT22;40800;52.704;6.398;2023-05-10T09:06:00;15.00;99.90
54898;DHT22;40800;52.704;6.398;2023-05-10T09:08:26;15.30;99.90
54898;DHT22;40800;52.704;6.398;2023-05-10T09:10:53;15.40;99.90
54898;DHT22;40800;52.704;6.398;2023-05-10T09:13:19;15.10;99.90
54898;DHT22;40800;52.704;6.398;2023-05-10T09:15:46;15.30;99.90
54898;DHT22;40800;52.704;6.398;2023-05-10T09:18:12;15.30;99.90
54898;DHT22;40800;52.704;6.398;2023-05-10T09:20:38;15.40;99.90
54898;DHT22;40800;52.704;6.398;2023-05-10T09:23:03;15.20;99.90
54898;DHT22;40800;52.704;6.398;2023-05-10T09:25:29;15.50;99.90
54898;DHT22;40800;52.704;6.398;2023-05-10T09:27:55;15.20;99.90
54898;DHT22;40800;52.704;6.398;2023-05-10T09:30:29;15.40;99.90
54898;DHT22;40800;52.704;6.398;2023-05-10T09:32:55;15.10;99.90
54898;DHT22;40800;52.704;6.398;2023-05-10T09:35:24;15.30;99.90
54898;DHT22;40800;52.704;6.398;2023-05-10T09:37:52;15.10;99.90
54898;DHT22;40800;52.704;6.398;2023-05-10T09:40:22;15.40;99.90
54898;DHT22;40800;52.704;6.398;2023-05-10T09:43:11;15.50;99.90
54898;DHT22;40800;52.704;6.398;2023-05-10T09:45:36;15.60;99.90
54898;DHT22;40800;52.704;6.398;2023-05-10T09:48:03;15.50;99.90
54898;DHT22;40800;52.704;6.398;2023-05-10T09:50:31;15.80;99.90
54898;DHT22;40800;52.704;6.398;2023-05-10T09:52:59;15.60;99.90
54898;DHT22;40800;52.704;6.398;2023-05-10T09:55:37;15.70;99.90
54898;DHT22;40800;52.704;6.398;2023-05-10T09:58:03;15.40;99.90
54898;DHT22;40800;52.704;6.398;2023-05-10T10:00:35;15.40;99.90
54898;DHT22;40800;52.704;6.398;2023-05-10T10:03:01;15.60;99.90
54898;DHT22;40800;52.704;6.398;2023-05-10T10:05:34;15.20;99.90
54898;DHT22;40800;52.704;6.398;2023-05-10T10:08:02;15.80;99.90
54898;DHT22;40800;52.704;6.398;2023-05-10T10:10:29;15.40;99.90
54898;DHT22;40800;52.704;6.398;2023-05-10T10:12:56;15.60;99.90
54898;DHT22;40800;52.704;6.398;2023-05-10T10:15:22;15.50;99.90
54898;DHT22;40800;52.704;6.398;2023-05-10T10:17:49;15.40;99.90
54898;DHT22;40800;52.704;6.398;2023-05-10T10:20:15;15.30;99.90
54898;DHT22;40800;52.704;6.398;2023-05-10T10:22:41;15.40;99.90
54898;DHT22;40800;52.704;6.398;2023-05-10T10:25:10;15.30;99.90
54898;DHT22;40800;52.704;6.398;2023-05-10T10:30:31;15.60;99.90
54898;DHT22;40800;52.704;6.398;2023-05-10T10:33:10;15.50;99.90
54898;DHT22;40800;52.704;6.398;2023-05-10T10:35:39;15.60;99.90
54898;DHT22;40800;52.704;6.398;2023-05-10T10:38:08;15.80;99.90
54898;DHT22;40800;52.704;6.398;2023-05-10T10:40:34;15.90;99.90
54898;DHT22;40800;52.704;6.398;2023-05-10T10:46:13;16.10;99.90
54898;DHT22;40800;52.704;6.398;2023-05-10T10:48:41;15.90;99.90
54898;DHT22;40800;52.704;6.398;2023-05-10T10:51:06;15.90;99.90
54898;DHT22;40800;52.704;6.398;2023-05-10T10:53:32;16.00;99.90
54898;DHT22;40800;52.704;6.398;2023-05-10T10:56:12;16.00;99.90
54898;DHT22;40800;52.704;6.398;2023-05-10T10:58:39;16.10;99.90
54898;DHT22;40800;52.704;6.398;2023-05-10T11:01:14;16.00;99.90
54898;DHT22;40800;52.704;6.398;2023-05-10T11:03:54;15.90;99.90
54898;DHT22;40800;52.704;6.398;2023-05-10T11:06:29;16.00;99.90
54898;DHT22;40800;52.704;6.398;2023-05-10T11:08:57;15.90;99.90
54898;DHT22;40800;52.704;6.398;2023-05-10T11:11:22;15.90;99.90
54898;DHT22;40800;52.704;6.398;2023-05-10T11:13:48;15.80;99.90
54898;DHT22;40800;52.704;6.398;2023-05-10T11:16:21;15.50;99.90
54898;DHT22;40800;52.704;6.398;2023-05-10T11:21:24;15.50;99.90
54898;DHT22;40800;52.704;6.398;2023-05-10T11:23:52;15.80;99.90
54898;DHT22;40800;52.704;6.398;2023-05-10T11:26:21;15.60;99.90
54898;DHT22;40800;52.704;6.398;2023-05-10T11:28:49;15.50;99.90
54898;DHT22;40800;52.704;6.398;2023-05-10T11:31:15;15.50;99.90
54898;DHT22;40800;52.704;6.398;2023-05-10T11:36:19;15.70;99.90
54898;DHT22;40800;52.704;6.398;2023-05-10T11:38:45;15.60;99.90
54898;DHT22;40800;52.704;6.398;2023-05-10T11:41:11;15.70;99.90
54898;DHT22;40800;52.704;6.398;2023-05-10T11:43:39;15.80;99.90
54898;DHT22;40800;52.704;6.398;2023-05-10T11:46:10;15.90;99.90
54898;DHT22;40800;52.704;6.398;2023-05-10T11:48:38;15.50;99.90
54898;DHT22;40800;52.704;6.398;2023-05-10T11:51:04;15.60;99.90
54898;DHT22;40800;52.704;6.398;2023-05-10T11:53:31;15.50;99.90
54898;DHT22;40800;52.704;6.398;2023-05-10T11:56:10;15.00;99.90
54898;DHT22;40800;52.704;6.398;2023-05-10T11:58:37;15.40;99.90
54898;DHT22;40800;52.704;6.398;2023-05-10T12:01:04;15.00;99.90
54898;DHT22;40800;52.704;6.398;2023-05-10T12:03:30;14.80;99.90
54898;DHT22;40800;52.704;6.398;2023-05-10T12:05:57;15.50;99.90
54898;DHT22;40800;52.704;6.398;2023-05-10T12:08:25;15.30;99.90
54898;DHT22;40800;52.704;6.398;2023-05-10T12:10:52;15.20;99.90
54898;DHT22;40800;52.704;6.398;2023-05-10T12:13:19;15.10;99.90
54898;DHT22;40800;52.704;6.398;2023-05-10T12:15:45;15.40;99.90
54898;DHT22;40800;52.704;6.398;2023-05-10T12:18:12;15.50;99.90
54898;DHT22;40800;52.704;6.398;2023-05-10T12:20:39;15.10;99.90
54898;DHT22;40800;52.704;6.398;2023-05-10T12:23:05;15.60;99.90
54898;DHT22;40800;52.704;6.398;2023-05-10T12:25:33;15.30;99.90
54898;DHT22;40800;52.704;6.398;2023-05-10T12:27:59;15.50;99.90
54898;DHT22;40800;52.704;6.398;2023-05-10T12:30:31;15.50;99.90
54898;DHT22;40800;52.704;6.398;2023-05-10T12:33:01;15.90;99.90
54898;DHT22;40800;52.704;6.398;2023-05-10T12:35:30;15.90;99.90
54898;DHT22;40800;52.704;6.398;2023-05-10T12:37:55;16.00;99.90
54898;DHT22;40800;52.704;6.398;2023-05-10T12:40:21;16.20;99.90
54898;DHT22;40800;52.704;6.398;2023-05-10T12:42:47;16.10;99.90
54898;DHT22;40800;52.704;6.398;2023-05-10T12:45:14;16.30;99.90
54898;DHT22;40800;52.704;6.398;2023-05-10T12:47:41;16.40;99.90
54898;DHT22;40800;52.704;6.398;2023-05-10T12:50:07;16.50;99.90
54898;DHT22;40800;52.704;6.398;2023-05-10T12:52:33;16.40;99.90
54898;DHT22;40800;52.704;6.398;2023-05-10T12:54:59;16.50;99.90
54898;DHT22;40800;52.704;6.398;2023-05-10T12:57:26;16.50;99.90
54898;DHT22;40800;52.704;6.398;2023-05-10T12:59:52;16.30;99.90
54898;DHT22;40800;52.704;6.398;2023-05-10T13:02:18;16.20;99.90
54898;DHT22;40800;52.704;6.398;2023-05-10T13:04:44;16.30;99.90
54898;DHT22;40800;52.704;6.398;2023-05-10T13:07:10;16.00;99.90
54898;DHT22;40800;52.704;6.398;2023-05-10T13:09:36;16.00;99.90
54898;DHT22;40800;52.704;6.398;2023-05-10T13:12:02;15.90;99.90
54898;DHT22;40800;52.704;6.398;2023-05-10T13:14:27;15.80;99.90
54898;DHT22;40800;52.704;6.398;2023-05-10T13:16:53;15.70;99.90
54898;DHT22;40800;52.704;6.398;2023-05-10T13:19:19;15.60;99.90
54898;DHT22;40800;52.704;6.398;2023-05-10T13:21:45;15.60;99.90
54898;DHT22;40800;52.704;6.398;2023-05-10T13:24:11;15.50;99.90
54898;DHT22;40800;52.704;6.398;2023-05-10T13:26:39;15.70;99.90
54898;DHT22;40800;52.704;6.398;2023-05-10T13:29:05;15.70;99.90
54898;DHT22;40800;52.704;6.398;2023-05-10T13:31:31;15.80;99.90
54898;DHT22;40800;52.704;6.398;2023-05-10T13:33:56;15.60;99.90
54898;DHT22;40800;52.704;6.398;2023-05-10T13:36:22;15.70;99.90
54898;DHT22;40800;52.704;6.398;2023-05-10T13:38:48;15.90;99.90
54898;DHT22;40800;52.704;6.398;2023-05-10T13:41:13;15.80;99.90
54898;DHT22;40800;52.704;6.398;2023-05-10T13:43:39;15.90;99.90
54898;DHT22;40800;52.704;6.398;2023-05-10T13:46:05;15.90;99.90
54898;DHT22;40800;52.704;6.398;2023-05-10T13:48:30;15.90;99.90
54898;DHT22;40800;52.704;6.398;2023-05-10T13:50:56;15.60;99.90
54898;DHT22;40800;52.704;6.398;2023-05-10T13:53:21;15.70;99.90
54898;DHT22;40800;52.704;6.398;2023-05-10T13:55:47;15.70;99.90
54898;DHT22;40800;52.704;6.398;2023-05-10T13:58:13;15.50;99.90
54898;DHT22;40800;52.704;6.398;2023-05-10T14:00:38;15.50;99.90
54898;DHT22;40800;52.704;6.398;2023-05-10T14:03:04;15.60;99.90
54898;DHT22;40800;52.704;6.398;2023-05-10T14:05:30;15.50;99.90
54898;DHT22;40800;52.704;6.398;2023-05-10T14:07:56;15.40;99.90
54898;DHT22;40800;52.704;6.398;2023-05-10T14:10:22;15.20;99.90
54898;DHT22;40800;52.704;6.398;2023-05-10T14:12:48;15.20;99.90
54898;DHT22;40800;52.704;6.398;2023-05-10T14:15:13;15.40;99.90
54898;DHT22;40800;52.704;6.398;2023-05-10T14:17:39;15.40;99.90
54898;DHT22;40800;52.704;6.398;2023-05-10T14:20:05;15.10;99.90
54898;DHT22;40800;52.704;6.398;2023-05-10T14:22:30;15.10;99.90
54898;DHT22;40800;52.704;6.398;2023-05-10T14:24:56;15.40;99.90
54898;DHT22;40800;52.704;6.398;2023-05-10T14:27:22;15.40;99.90
54898;DHT22;40800;52.704;6.398;2023-05-10T14:29:48;15.10;99.90
54898;DHT22;40800;52.704;6.398;2023-05-10T14:32:13;15.40;99.90
54898;DHT22;40800;52.704;6.398;2023-05-10T14:34:39;15.50;99.90
54898;DHT22;40800;52.704;6.398;2023-05-10T14:37:04;15.40;99.90
54898;DHT22;40800;52.704;6.398;2023-05-10T14:39:30;15.30;99.90
54898;DHT22;40800;52.704;6.398;2023-05-10T14:41:56;15.40;99.90
54898;DHT22;40800;52.704;6.398;2023-05-10T14:44:21;15.50;99.90
54898;DHT22;40800;52.704;6.398;2023-05-10T14:46:47;15.50;99.90
54898;DHT22;40800;52.704;6.398;2023-05-10T14:49:14;15.70;99.90
54898;DHT22;40800;52.704;6.398;2023-05-10T14:51:39;15.50;99.90
54898;DHT22;40800;52.704;6.398;2023-05-10T14:54:05;15.60;99.90
54898;DHT22;40800;52.704;6.398;2023-05-10T14:56:31;15.70;99.90
54898;DHT22;40800;52.704;6.398;2023-05-10T14:58:57;15.90;99.90
54898;DHT22;40800;52.704;6.398;2023-05-10T15:01:22;15.90;99.90
54898;DHT22;40800;52.704;6.398;2023-05-10T15:03:48;16.10;99.90
54898;DHT22;40800;52.704;6.398;2023-05-10T15:06:14;16.10;99.90
54898;DHT22;40800;52.704;6.398;2023-05-10T15:08:43;16.10;99.90
54898;DHT22;40800;52.704;6.398;2023-05-10T15:11:09;16.20;99.90
54898;DHT22;40800;52.704;6.398;2023-05-10T15:13:34;16.30;99.90
54898;DHT22;40800;52.704;6.398;2023-05-10T15:16:00;16.40;99.90
54898;DHT22;40800;52.704;6.398;2023-05-10T15:18:26;16.50;99.90
54898;DHT22;40800;52.704;6.398;2023-05-10T15:20:52;16.40;99.90
54898;DHT22;40800;52.704;6.398;2023-05-10T15:23:17;16.50;99.90
54898;DHT22;40800;52.704;6.398;2023-05-10T15:25:43;16.40;99.90
54898;DHT22;40800;52.704;6.398;2023-05-10T15:28:08;16.60;99.90
54898;DHT22;40800;52.704;6.398;2023-05-10T15:30:34;16.50;99.90
54898;DHT22;40800;52.704;6.398;2023-05-10T15:32:59;16.50;99.90
54898;DHT22;40800;52.704;6.398;2023-05-10T15:35:26;16.30;99.90
54898;DHT22;40800;52.704;6.398;2023-05-10T15:37:52;16.50;99.90
54898;DHT22;40800;52.704;6.398;2023-05-10T15:40:17;16.40;99.90
54898;DHT22;40800;52.704;6.398;2023-05-10T15:42:43;16.30;99.90
54898;DHT22;40800;52.704;6.398;2023-05-10T15:45:09;16.30;99.90
54898;DHT22;40800;52.704;6.398;2023-05-10T15:47:36;16.30;99.90
54898;DHT22;40800;52.704;6.398;2023-05-10T15:50:01;16.30;99.90
54898;DHT22;40800;52.704;6.398;2023-05-10T15:52:29;16.30;99.90
54898;DHT22;40800;52.704;6.398;2023-05-10T15:54:55;16.20;99.90
54898;DHT22;40800;52.704;6.398;2023-05-10T15:57:21;16.30;99.90